Time;durP1;ratioP1;P1;durP2;ratioP2;P2;SDS_P1;SDS_P2;PMS_P1;PMS_P2;Temp;Humidity;BMP_temperature;BMP_pressure;BME280_temperature;BME280_humidity;BME280_pressure;Samples;Min_cycle;Max_cycle;Signal;HPM_P1;HPM_P2
2022/11/06 00:00:54;;;;;;;21.33;14.70;;;;;;;15.29;68.50;94209.28;5012140;28;20333;-88
2022/11/06 00:03:21;;;;;;;21.87;14.27;;;;;;;15.23;68.35;94210.78;5013659;28;20195;-90
2022/11/06 00:08:36;;;;;;;21.70;15.20;;;;;;;15.26;68.38;94210.44;5013319;28;20199;-90
2022/11/06 00:11:09;;;;;;;21.87;14.07;;;;;;;15.26;68.42;94215.59;5012280;28;20228;-87
2022/11/06 00:13:38;;;;;;;26.70;14.53;;;;;;;15.16;68.37;94191.88;5013704;28;20196;-87
2022/11/06 00:16:07;;;;;;;24.90;14.40;;;;;;;15.06;68.33;94179.25;5019354;28;20188;-89
2022/11/06 00:18:35;;;;;;;20.77;14.43;;;;;;;15.15;68.44;94195.41;5030823;28;20200;-88
2022/11/06 00:21:09;;;;;;;18.80;14.43;;;;;;;15.17;68.47;94201.22;5020515;28;20228;-92
2022/11/06 00:23:36;;;;;;;19.67;14.73;;;;;;;15.15;68.33;94190.28;5016075;28;20189;-89
2022/11/06 00:26:06;;;;;;;21.53;14.50;;;;;;;15.23;68.39;94200.47;5013930;28;20604;-87
2022/11/06 00:28:32;;;;;;;23.87;14.70;;;;;;;15.22;68.44;94201.47;5013678;28;20683;-90
2022/11/06 00:31:10;;;;;;;21.67;15.73;;;;;;;15.14;68.28;94188.69;5013851;28;20181;-88
2022/11/06 00:33:38;;;;;;;23.20;15.10;;;;;;;15.19;68.02;94201.03;5015307;28;20271;-90
2022/11/06 00:36:08;;;;;;;21.00;14.13;;;;;;;15.15;68.67;94192.84;5019200;28;20208;-91
2022/11/06 00:38:35;;;;;;;17.90;14.00;;;;;;;14.91;68.49;94150.16;5022573;28;20192;-90
2022/11/06 00:41:02;;;;;;;20.83;14.53;;;;;;;15.18;68.46;94202.00;5024017;28;20234;-86
2022/11/06 00:43:29;;;;;;;23.70;14.73;;;;;;;15.18;68.39;94202.00;5021847;28;20739;-87
2022/11/06 00:46:01;;;;;;;21.83;15.27;;;;;;;15.17;68.35;94200.41;5028051;28;20185;-87
2022/11/06 00:48:28;;;;;;;22.57;15.00;;;;;;;15.10;68.43;94191.78;5030701;28;20204;-87
2022/11/06 00:50:55;;;;;;;22.03;15.13;;;;;;;15.15;68.54;94202.34;5033325;28;20207;-86
2022/11/06 00:53:23;;;;;;;23.43;15.80;;;;;;;15.13;68.50;94191.44;5032089;28;20196;-86
2022/11/06 00:55:50;;;;;;;25.73;14.47;;;;;;;15.12;68.60;94192.44;5028873;28;20195;-87
2022/11/06 00:58:17;;;;;;;18.73;14.87;;;;;;;15.00;68.34;94172.25;5029576;28;20192;-89
2022/11/06 01:00:43;;;;;;;25.07;16.13;;;;;;;15.08;68.61;94191.97;5026669;28;20219;-88
2022/11/06 01:03:10;;;;;;;21.57;14.73;;;;;;;15.06;68.59;94189.56;5029060;28;20208;-90
2022/11/06 01:05:37;;;;;;;22.67;14.93;;;;;;;15.05;68.59;94189.75;5035433;28;20197;-86
2022/11/06 01:08:04;;;;;;;19.23;14.90;;;;;;;14.96;68.56;94183.88;5037310;28;20196;-84
2022/11/06 01:10:32;;;;;;;23.73;15.40;;;;;;;14.93;68.54;94181.66;5036696;28;20197;-85
2022/11/06 01:12:59;;;;;;;28.47;15.63;;;;;;;14.98;68.82;94192.25;5036669;28;20188;-90
2022/11/06 01:15:26;;;;;;;20.03;15.40;;;;;;;14.68;68.75;94139.13;5036323;28;20197;-89
2022/11/06 01:17:53;;;;;;;22.27;14.60;;;;;;;14.71;68.61;94151.63;5035466;28;20195;-88
2022/11/06 01:20:19;;;;;;;25.37;14.67;;;;;;;14.66;68.60;94133.34;5026229;28;20196;-90
2022/11/06 01:22:46;;;;;;;22.17;15.13;;;;;;;14.91;68.68;94175.09;5018423;28;20188;-86
2022/11/06 01:25:14;;;;;;;22.47;15.30;;;;;;;14.83;68.66;94160.53;5016525;28;20586;-90
2022/11/06 01:27:42;;;;;;;21.30;15.47;;;;;;;14.82;68.74;94163.28;5016063;28;20188;-90
2022/11/06 01:30:10;;;;;;;24.37;15.33;;;;;;;14.75;68.76;94151.09;5016951;28;20188;-89
2022/11/06 01:32:37;;;;;;;20.37;16.03;;;;;;;14.82;68.75;94158.94;5017010;28;20200;-91
2022/11/06 01:35:05;;;;;;;25.37;15.83;;;;;;;14.80;68.93;94166.81;5016438;28;20203;-87
2022/11/06 01:37:32;;;;;;;21.20;14.53;;;;;;;14.46;68.44;94104.72;5016945;28;20215;-90
2022/11/06 01:39:59;;;;;;;25.00;15.83;;;;;;;14.78;68.72;94161.06;5017132;28;20690;-90
2022/11/06 01:42:26;;;;;;;22.90;15.70;;;;;;;14.60;68.76;94136.66;5016393;28;20622;-87
2022/11/06 01:45:21;;;;;;;19.00;13.73;;;;;;;14.75;68.83;94163.19;5015819;28;20192;-89
2022/11/06 01:47:48;;;;;;;21.87;16.33;;;;;;;14.51;68.82;94126.44;4954891;29;20201;-88
2022/11/06 01:50:17;;;;;;;25.93;15.93;;;;;;;14.64;68.93;94146.41;4939967;29;20194;-89
2022/11/06 01:52:47;;;;;;;26.63;15.73;;;;;;;14.62;68.82;94140.63;4962848;29;20290;-84
2022/11/06 01:55:18;;;;;;;21.17;15.30;;;;;;;14.62;69.11;94140.63;4955622;29;20309;-89
2022/11/06 01:57:46;;;;;;;23.63;14.73;;;;;;;14.70;68.86;94152.63;4960041;29;20198;-87
2022/11/06 02:00:14;;;;;;;21.20;14.83;;;;;;;14.69;68.76;94151.81;4967771;29;20214;-89
2022/11/06 02:02:44;;;;;;;25.43;15.80;;;;;;;14.15;68.96;94067.06;4967659;29;20244;-87
2022/11/06 02:05:12;;;;;;;23.13;15.67;;;;;;;14.58;68.96;94125.72;4967268;28;20266;-89
2022/11/06 02:07:40;;;;;;;19.87;14.37;;;;;;;14.70;69.13;94148.25;4971403;29;20238;-87
2022/11/06 02:10:08;;;;;;;21.27;14.73;;;;;;;14.62;69.05;94138.06;4974382;29;20202;-88
2022/11/06 02:13:07;;;;;;;22.27;14.23;;;;;;;14.67;69.10;94140.88;4976121;29;20208;-86
2022/11/06 02:15:43;;;;;;;20.77;14.03;;;;;;;14.72;69.23;94155.81;4974843;29;20198;-85
2022/11/06 02:18:21;;;;;;;20.43;13.83;;;;;;;14.47;69.00;94104.56;4972112;29;20297;-90
2022/11/06 02:21:11;;;;;;;22.60;13.63;;;;;;;14.75;69.22;94148.53;4972853;29;20221;-87
2022/11/06 02:23:57;;;;;;;18.20;12.43;;;;;;;14.77;69.30;94144.03;4969019;28;20198;-87
2022/11/06 02:26:46;;;;;;;20.27;13.50;;;;;;;14.38;69.10;94066.22;5033037;28;20184;-91
2022/11/06 02:29:20;;;;;;;22.40;13.27;;;;;;;14.74;69.12;94123.78;5023926;28;20227;-88
2022/11/06 02:31:49;;;;;;;18.33;12.97;;;;;;;14.85;69.35;94132.81;5021989;28;20189;-87
2022/11/06 02:34:19;;;;;;;18.83;12.73;;;;;;;14.90;69.29;94140.84;5029238;28;20184;-86
2022/11/06 02:36:53;;;;;;;14.43;12.10;;;;;;;14.54;69.33;94073.81;5033980;28;20257;-88
2022/11/06 02:39:24;;;;;;;23.87;12.33;;;;;;;14.91;69.33;94137.28;5031013;28;20256;-90
2022/11/06 02:41:56;;;;;;;15.40;10.90;;;;;;;14.90;69.45;94130.53;5031547;28;20222;-87
2022/11/06 02:44:26;;;;;;;17.97;11.73;;;;;;;15.01;69.31;94137.00;5037842;28;20207;-86
2022/11/06 02:46:57;;;;;;;15.10;10.90;;;;;;;15.02;69.26;94138.59;5037445;28;20202;-86
2022/11/06 02:49:30;;;;;;;16.87;11.07;;;;;;;15.04;69.39;94136.66;5035642;28;20212;-89
2022/11/06 02:52:01;;;;;;;14.33;10.60;;;;;;;14.96;69.29;94121.28;5024853;28;20192;-87
2022/11/06 02:54:33;;;;;;;14.00;10.00;;;;;;;15.10;69.40;94141.06;4997587;28;20591;-89
2022/11/06 02:57:08;;;;;;;14.67;10.17;;;;;;;15.13;69.35;94148.44;5014321;28;20196;-88
2022/11/06 02:59:43;;;;;;;14.57;9.13;;;;;;;14.79;69.42;94093.16;5022791;28;20194;-86
2022/11/06 03:02:17;;;;;;;15.07;9.90;;;;;;;15.19;69.39;94160.59;5027925;28;20239;-90
2022/11/06 03:04:48;;;;;;;11.33;8.67;;;;;;;15.07;69.42;94136.31;5025946;28;20202;-88
2022/11/06 03:07:21;;;;;;;12.70;8.37;;;;;;;15.21;69.34;94152.72;5025628;28;20323;-86
2022/11/06 03:09:49;;;;;;;14.30;8.43;;;;;;;15.30;69.24;94164.53;5027716;28;20203;-90
2022/11/06 03:12:28;;;;;;;15.30;8.17;;;;;;;15.28;69.25;94162.13;5026884;28;20188;-90
2022/11/06 03:15:00;;;;;;;14.47;7.87;;;;;;;15.10;69.06;94119.69;5024327;28;20263;-88
2022/11/06 03:17:37;;;;;;;14.97;8.27;;;;;;;15.39;69.05;94168.59;5024767;28;20219;-91
2022/11/06 03:20:16;;;;;;;10.50;7.73;;;;;;;15.37;69.20;94154.28;5022389;28;20199;-86
2022/11/06 03:22:50;;;;;;;12.07;7.73;;;;;;;15.47;69.05;94170.28;5021381;28;20254;-91
2022/11/06 03:25:22;;;;;;;10.30;7.27;;;;;;;15.25;68.93;94134.16;5021409;28;20199;-86
2022/11/06 03:28:02;;;;;;;10.80;7.40;;;;;;;15.50;69.14;94159.59;5021493;28;20180;-90
2022/11/06 03:31:05;;;;;;;10.03;6.60;;;;;;;15.53;69.07;94172.91;5021361;28;20238;-92
2022/11/06 03:33:37;;;;;;;9.60;6.87;;;;;;;15.42;68.83;94164.88;5017940;28;20195;-90
2022/11/06 03:36:10;;;;;;;13.80;7.17;;;;;;;15.21;69.11;94119.22;5014219;28;20199;-89
2022/11/06 03:38:41;;;;;;;10.33;6.97;;;;;;;15.43;68.90;94156.94;5014770;28;20207;-89
2022/11/06 03:41:14;;;;;;;11.83;6.90;;;;;;;15.60;68.93;94192.81;5014123;28;20314;-89
2022/11/06 03:43:45;;;;;;;10.80;6.53;;;;;;;15.40;69.07;94156.50;5013176;28;20192;-85
2022/11/06 03:46:36;;;;;;;12.97;6.30;;;;;;;15.63;69.08;94184.72;5012927;28;20195;-88
2022/11/06 03:49:08;;;;;;;10.03;6.67;;;;;;;15.63;69.01;94187.28;5013979;28;20196;-90
2022/11/06 03:51:40;;;;;;;11.13;6.23;;;;;;;15.62;69.17;94177.97;5015284;28;20195;-87
2022/11/06 03:54:14;;;;;;;10.43;7.20;;;;;;;15.44;69.23;94150.00;5015059;28;20192;-88
2022/11/06 03:56:45;;;;;;;12.40;7.30;;;;;;;15.64;69.10;94181.19;5014432;28;20189;-89
2022/11/06 03:59:18;;;;;;;9.93;6.10;;;;;;;15.64;69.19;94176.03;5015184;28;20583;-90
2022/11/06 04:01:48;;;;;;;11.37;6.80;;;;;;;15.62;69.16;94181.34;5015461;28;20208;-88
2022/11/06 04:04:21;;;;;;;9.97;6.40;;;;;;;15.59;69.27;94173.16;5016595;28;20192;-91
2022/11/06 04:06:53;;;;;;;8.83;6.30;;;;;;;15.63;69.33;94185.53;5018330;28;20235;-90
2022/11/06 04:15:00;;;;;;;8.07;6.60;;;;;;;15.62;69.46;94196.81;5014137;28;20195;-88
2022/11/06 04:17:28;;;;;;;9.80;6.80;;;;;;;15.63;69.39;94192.44;5013797;28;20188;-88
2022/11/06 04:20:01;;;;;;;11.13;7.57;;;;;;;15.47;69.55;94171.06;5013216;28;20215;-90
2022/11/06 04:22:43;;;;;;;9.23;6.20;;;;;;;15.30;69.63;94149.06;5013384;28;20228;-89
2022/11/06 04:28:27;;;;;;;9.53;6.20;;;;;;;15.31;69.74;94141.16;5020727;28;20176;-88
2022/11/06 04:31:06;;;;;;;13.20;7.40;;;;;;;15.48;69.71;94174.44;5030463;28;20193;-91
2022/11/06 04:33:40;;;;;;;11.10;6.67;;;;;;;15.35;69.73;94158.81;5019291;28;20199;-91
2022/11/06 04:36:20;;;;;;;9.27;6.87;;;;;;;15.46;70.01;94184.94;5015321;28;20203;-90
2022/11/06 04:38:53;;;;;;;10.20;6.87;;;;;;;15.49;70.10;94186.34;5017567;28;20279;-90
2022/11/06 04:41:33;;;;;;;13.03;7.17;;;;;;;15.34;70.28;94168.34;5015250;28;20682;-91
2022/11/06 04:44:04;;;;;;;11.33;6.63;;;;;;;15.49;70.28;94197.44;5013059;28;20564;-89
2022/11/06 04:46:36;;;;;;;11.37;6.80;;;;;;;15.45;70.61;94197.97;5012783;28;20196;-90
2022/11/06 04:49:06;;;;;;;10.10;6.47;;;;;;;15.44;70.72;94186.09;5013214;28;20207;-89
2022/11/06 04:51:37;;;;;;;12.63;7.10;;;;;;;15.33;70.53;94169.31;5014410;28;20205;-90
2022/11/06 04:54:09;;;;;;;13.20;6.50;;;;;;;15.52;70.84;94204.03;5025052;28;20193;-88
2022/11/06 04:56:37;;;;;;;9.57;6.57;;;;;;;15.52;70.93;94214.34;5031829;28;20268;-88
2022/11/06 04:59:04;;;;;;;9.97;6.63;;;;;;;15.51;70.98;94217.91;5030673;28;20207;-90
2022/11/06 05:01:33;;;;;;;9.63;6.97;;;;;;;15.40;71.13;94203.69;5018611;28;20234;-88
2022/11/06 05:04:00;;;;;;;10.30;6.33;;;;;;;15.34;71.01;94203.59;5018365;28;20200;-88
2022/11/06 05:06:27;;;;;;;10.27;6.43;;;;;;;15.50;71.16;94227.41;5017107;28;20246;-88
2022/11/06 05:08:54;;;;;;;10.50;6.13;;;;;;;15.50;71.19;94229.16;5013575;28;20575;-89
2022/11/06 05:11:21;;;;;;;11.53;6.37;;;;;;;15.50;71.12;94242.06;5013682;28;20678;-89
2022/11/06 05:13:48;;;;;;;9.83;6.40;;;;;;;15.37;71.06;94226.41;5013695;28;20271;-90
2022/11/06 05:16:15;;;;;;;13.37;7.13;;;;;;;15.49;71.33;94243.03;5015291;28;20204;-87
2022/11/06 05:18:43;;;;;;;12.60;7.37;;;;;;;15.44;71.35;94243.56;5015799;28;20196;-87
2022/11/06 05:23:55;;;;;;;14.07;6.43;;;;;;;15.50;71.54;94260.91;5015625;28;20192;-85
2022/11/06 05:26:25;;;;;;;8.37;5.90;;;;;;;15.41;71.56;94248.28;5016034;28;20206;-86
2022/11/06 05:28:52;;;;;;;11.00;6.63;;;;;;;15.20;71.62;94220.66;5016151;28;20631;-85
2022/11/06 05:31:19;;;;;;;8.20;6.60;;;;;;;15.41;71.75;94250.84;5015580;28;20195;-88
2022/11/06 05:33:50;;;;;;;10.30;6.30;;;;;;;15.49;71.84;94269.59;5019336;28;20189;-86
2022/11/06 05:36:19;;;;;;;7.93;6.37;;;;;;;15.51;71.67;94267.66;5016131;28;20268;-84
2022/11/06 05:38:46;;;;;;;10.97;6.40;;;;;;;15.50;71.60;94270.41;5015501;28;20705;-89
2022/11/06 05:41:13;;;;;;;7.77;6.17;;;;;;;15.20;71.93;94220.66;5017409;28;20188;-86
2022/11/06 05:43:43;;;;;;;8.37;5.80;;;;;;;15.56;71.76;94269.69;5015550;28;20224;-88
2022/11/06 05:46:10;;;;;;;10.70;6.20;;;;;;;15.52;71.75;94271.03;5018913;28;20200;-87
2022/11/06 05:48:37;;;;;;;11.43;6.33;;;;;;;15.58;71.63;94285.78;5028636;28;20843;-84
2022/11/06 05:51:08;;;;;;;9.80;6.10;;;;;;;15.60;71.56;94290.78;5026854;28;20193;-86
2022/11/06 05:53:36;;;;;;;9.80;6.40;;;;;;;15.52;71.70;94286.50;5024808;28;20188;-86
2022/11/06 05:56:04;;;;;;;7.90;6.30;;;;;;;15.50;71.33;94275.56;5023815;28;20184;-83
2022/11/06 05:58:31;;;;;;;13.07;6.60;;;;;;;15.63;71.55;94301.53;5026138;28;20192;-86
2022/11/06 06:00:58;;;;;;;8.23;6.13;;;;;;;15.66;71.49;94298.59;5023138;28;20201;-88
2022/11/06 06:03:26;;;;;;;11.77;6.90;;;;;;;15.70;71.54;94305.00;5018674;28;20234;-86
2022/11/06 06:05:53;;;;;;;10.00;6.30;;;;;;;15.65;71.75;94289.28;5023778;28;20221;-89
2022/11/06 06:08:21;;;;;;;10.83;7.17;;;;;;;15.55;71.51;94268.13;5027572;28;20196;-90
2022/11/06 06:10:53;;;;;;;9.50;6.37;;;;;;;15.58;71.71;94272.88;5023322;28;20192;-90
2022/11/06 06:13:20;;;;;;;9.57;5.90;;;;;;;15.84;71.54;94302.59;5002829;28;20199;-84
2022/11/06 06:15:49;;;;;;;9.40;6.60;;;;;;;15.76;71.52;94290.63;5029112;28;20195;-86
2022/11/06 06:18:16;;;;;;;10.77;6.80;;;;;;;15.83;71.59;94291.47;5031302;28;20211;-86
2022/11/06 06:20:44;;;;;;;9.37;6.23;;;;;;;15.88;71.84;94285.78;5030649;28;20203;-86
2022/11/06 06:23:11;;;;;;;14.27;6.63;;;;;;;16.03;71.71;94308.00;5030652;28;20227;-86
2022/11/06 06:25:39;;;;;;;14.17;7.00;;;;;;;16.08;71.78;94304.09;5022179;28;20232;-88
2022/11/06 06:28:06;;;;;;;7.83;6.00;;;;;;;16.12;71.88;94308.69;5015439;28;20185;-85
2022/11/06 06:30:34;;;;;;;9.57;6.57;;;;;;;16.17;71.86;94323.63;5015265;28;20695;-87
2022/11/06 06:33:04;;;;;;;9.27;6.80;;;;;;;16.00;71.93;94287.72;5015222;28;20192;-88
2022/11/06 06:35:31;;;;;;;11.60;6.77;;;;;;;16.23;71.80;94310.78;5032152;28;20200;-86
2022/11/06 06:38:09;;;;;;;9.50;6.77;;;;;;;16.34;71.91;94324.22;5026110;28;20207;-91
2022/11/06 06:40:40;;;;;;;14.63;7.43;;;;;;;16.39;71.96;94321.91;5029320;28;20381;-87
2022/11/06 06:43:07;;;;;;;11.80;7.33;;;;;;;16.44;71.89;94327.31;5017450;28;20254;-90
2022/11/06 06:45:34;;;;;;;11.00;7.13;;;;;;;16.13;71.79;94268.22;5015035;28;20668;-90
2022/11/06 06:48:05;;;;;;;12.63;7.80;;;;;;;16.55;72.01;94340.53;5015005;28;20214;-92
2022/11/06 06:50:32;;;;;;;11.13;7.07;;;;;;;16.61;71.79;94336.41;5013937;28;20200;-87
2022/11/06 06:53:03;;;;;;;13.03;7.37;;;;;;;16.68;71.75;94341.66;5014354;28;20200;-92
2022/11/06 06:55:31;;;;;;;12.10;6.93;;;;;;;16.62;71.79;94319.94;5013417;28;20208;-88
2022/11/06 06:58:06;;;;;;;9.17;6.73;;;;;;;16.75;71.66;94334.78;5014082;28;20204;-90
2022/11/06 07:00:32;;;;;;;11.27;8.67;;;;;;;16.85;71.83;94337.88;5014273;28;20246;-90
2022/11/06 07:03:01;;;;;;;12.33;7.30;;;;;;;16.65;71.66;94304.09;5014385;28;20223;-91
2022/11/06 07:05:28;;;;;;;11.90;6.73;;;;;;;16.97;71.64;94344.16;5014222;28;20200;-91
2022/11/06 07:07:55;;;;;;;8.77;6.77;;;;;;;17.04;71.39;94354.53;5013552;28;20300;-86
2022/11/06 07:10:22;;;;;;;11.83;8.47;;;;;;;16.94;71.35;94338.56;5013540;28;20553;-87
2022/11/06 07:12:49;;;;;;;12.60;8.27;;;;;;;17.01;71.27;94332.47;5013768;28;20651;-92
2022/11/06 07:15:18;;;;;;;13.27;7.90;;;;;;;17.22;71.20;94349.72;5013993;28;20192;-91
2022/11/06 07:17:45;;;;;;;10.37;7.13;;;;;;;17.31;71.08;94358.13;5013472;28;20202;-91
2022/11/06 07:20:12;;;;;;;12.40;7.30;;;;;;;17.33;71.05;94355.38;5014674;28;20169;-90
2022/11/06 07:22:39;;;;;;;11.27;7.13;;;;;;;17.03;70.90;94312.41;5012875;28;20325;-87
2022/11/06 07:25:06;;;;;;;12.63;8.30;;;;;;;17.47;70.92;94365.63;5013937;28;20251;-89
2022/11/06 07:27:33;;;;;;;11.67;8.10;;;;;;;17.24;70.90;94339.22;5012597;28;20189;-89
2022/11/06 07:30:10;;;;;;;12.47;8.13;;;;;;;17.48;70.84;94376.75;5014828;28;20676;-87
2022/11/06 07:32:38;;;;;;;10.47;7.77;;;;;;;17.50;70.71;94374.78;5017541;28;20211;-88
2022/11/06 07:35:09;;;;;;;12.00;7.83;;;;;;;17.55;70.82;94375.03;5017848;28;20207;-87
2022/11/06 07:37:38;;;;;;;11.97;7.97;;;;;;;17.56;70.64;94376.63;5014322;28;20200;-88
2022/11/06 07:40:08;;;;;;;10.23;7.70;;;;;;;17.35;70.71;94346.44;5013746;28;20192;-88
2022/11/06 07:42:35;;;;;;;11.13;7.40;;;;;;;17.56;70.77;94385.16;5013259;28;20278;-90
2022/11/06 07:45:06;;;;;;;17.13;7.63;;;;;;;17.60;70.55;94379.63;5013958;28;20196;-90
2022/11/06 07:47:34;;;;;;;10.83;8.13;;;;;;;17.34;70.50;94339.66;5014122;28;20196;-87
2022/11/06 07:50:05;;;;;;;11.73;7.57;;;;;;;17.56;70.33;94372.25;5014056;28;20193;-90
2022/11/06 07:52:34;;;;;;;14.37;8.23;;;;;;;17.53;70.26;94361.50;5013394;28;20580;-91
2022/11/06 07:55:01;;;;;;;12.37;7.97;;;;;;;17.66;70.30;94390.03;5013493;28;20199;-90
2022/11/06 07:57:34;;;;;;;11.17;7.73;;;;;;;17.69;70.17;94387.06;5013775;28;20215;-89
2022/11/06 08:00:03;;;;;;;11.63;7.60;;;;;;;17.54;70.12;94363.88;5014891;28;20203;-90
2022/11/06 08:02:30;;;;;;;11.80;8.23;;;;;;;17.74;70.08;94395.06;5013912;28;20240;-91
2022/11/06 08:04:58;;;;;;;12.33;7.60;;;;;;;17.52;69.83;94358.09;5014160;28;20291;-93
2022/11/06 08:07:27;;;;;;;14.37;8.20;;;;;;;17.62;69.85;94362.94;5014758;28;20231;-91
2022/11/06 08:09:54;;;;;;;13.30;8.80;;;;;;;17.52;69.89;94346.94;5015354;28;20192;-91
2022/11/06 08:12:24;;;;;;;12.00;8.57;;;;;;;17.78;69.82;94387.72;5015830;28;20204;-90
2022/11/06 08:14:53;;;;;;;13.20;8.37;;;;;;;17.87;69.72;94394.34;5023504;28;20202;-86
2022/11/06 08:17:22;;;;;;;16.63;9.67;;;;;;;17.82;69.70;94393.34;5023775;28;20345;-90
2022/11/06 08:19:49;;;;;;;20.50;9.73;;;;;;;17.87;69.63;94396.94;5019740;28;20227;-89
2022/11/06 08:22:19;;;;;;;16.87;8.70;;;;;;;17.86;69.77;94403.13;5020704;28;20203;-91
2022/11/06 08:24:48;;;;;;;14.37;9.40;;;;;;;17.78;69.75;94383.34;5021698;28;20196;-89
2022/11/06 08:27:14;;;;;;;13.23;9.43;;;;;;;17.93;69.63;94409.13;5031149;28;20204;-87
2022/11/06 08:29:43;;;;;;;15.00;10.10;;;;;;;17.96;69.66;94402.75;5027539;28;20196;-86
2022/11/06 08:32:13;;;;;;;15.33;9.60;;;;;;;18.00;69.68;94402.22;5027662;28;20196;-86
2022/11/06 08:34:41;;;;;;;14.63;9.77;;;;;;;18.04;69.56;94405.22;5027022;28;20185;-91
2022/11/06 08:37:09;;;;;;;16.90;10.23;;;;;;;18.04;69.73;94405.22;5026944;28;20188;-90
2022/11/06 08:39:39;;;;;;;16.80;10.37;;;;;;;17.96;69.58;94384.66;5030010;28;20188;-89
2022/11/06 08:42:09;;;;;;;12.50;10.40;;;;;;;18.08;69.68;94406.44;5033033;28;20216;-90
2022/11/06 08:44:37;;;;;;;12.40;10.07;;;;;;;18.04;69.72;94400.03;5022905;28;20224;-89
2022/11/06 08:47:05;;;;;;;11.87;10.30;;;;;;;17.92;69.93;94386.03;5022658;28;20706;-89
2022/11/06 08:49:32;;;;;;;12.30;10.33;;;;;;;18.08;69.96;94411.59;5021149;28;20184;-90
2022/11/06 08:51:59;;;;;;;16.23;10.57;;;;;;;18.13;70.36;94429.94;5021940;28;20200;-90
2022/11/06 08:54:26;;;;;;;15.27;11.23;;;;;;;18.08;70.28;94421.16;5020956;28;20193;-92
2022/11/06 08:56:53;;;;;;;12.67;10.30;;;;;;;18.18;70.43;94434.56;5023732;28;20189;-88
2022/11/06 08:59:24;;;;;;;12.50;10.73;;;;;;;18.20;70.43;94443.72;5024039;28;20192;-90
2022/11/06 09:01:51;;;;;;;14.70;10.37;;;;;;;18.18;70.37;94440.53;5024002;28;20219;-87
2022/11/06 09:04:18;;;;;;;13.30;10.00;;;;;;;18.27;70.35;94447.16;5024518;28;20216;-87
2022/11/06 09:06:45;;;;;;;13.13;9.80;;;;;;;18.32;70.33;94448.38;5033965;28;20240;-86
2022/11/06 09:09:12;;;;;;;12.37;10.53;;;;;;;18.36;70.28;94447.81;5036547;28;20192;-86
2022/11/06 09:11:39;;;;;;;12.50;10.53;;;;;;;18.41;70.24;94460.97;5038096;28;20189;-84
2022/11/06 09:14:06;;;;;;;14.43;10.37;;;;;;;18.25;70.19;94414.69;5038064;28;20184;-87
2022/11/06 09:16:34;;;;;;;17.10;10.60;;;;;;;18.52;70.20;94444.06;5037893;28;20192;-87
2022/11/06 09:19:01;;;;;;;14.33;10.33;;;;;;;18.52;70.11;94438.91;5038646;28;20203;-84
2022/11/06 09:21:31;;;;;;;13.07;10.03;;;;;;;18.61;70.17;94449.88;5038264;28;20201;-84
2022/11/06 09:23:58;;;;;;;12.67;9.40;;;;;;;18.64;69.74;94436.56;5037022;28;20345;-84
2022/11/06 09:26:25;;;;;;;12.77;10.20;;;;;;;18.66;70.13;94437.19;5037227;28;20188;-87
2022/11/06 09:28:52;;;;;;;14.57;10.10;;;;;;;18.68;70.21;94443.75;5034550;28;20188;-87
2022/11/06 09:32:09;;;;;;;16.10;10.87;;;;;;;18.70;70.37;94446.19;5033313;28;20203;-86
2022/11/06 09:34:37;;;;;;;15.93;11.00;;;;;;;18.66;70.39;94437.19;5034015;28;20207;-84
2022/11/06 09:37:04;;;;;;;12.60;10.90;;;;;;;18.62;70.65;94433.38;5035560;28;20185;-87
2022/11/06 09:39:31;;;;;;;20.13;11.70;;;;;;;18.67;70.74;94441.38;5036259;28;20280;-86
2022/11/06 09:42:01;;;;;;;16.10;11.40;;;;;;;18.70;70.82;94448.78;5034855;28;20206;-90
2022/11/06 09:44:47;;;;;;;12.13;10.83;;;;;;;18.62;71.11;94433.38;5039438;28;20389;-86
2022/11/06 09:47:20;;;;;;;16.37;10.37;;;;;;;18.47;70.93;94411.00;5039434;28;20214;-86
2022/11/06 09:49:51;;;;;;;14.87;10.33;;;;;;;18.61;71.03;94436.94;5027658;28;20199;-89
2022/11/06 09:52:28;;;;;;;18.77;10.53;;;;;;;18.63;70.90;94440.94;5021956;28;20189;-89
2022/11/06 09:54:59;;;;;;;11.57;9.67;;;;;;;18.70;70.96;94448.78;5016874;28;20193;-90
2022/11/06 09:57:32;;;;;;;10.63;9.57;;;;;;;18.61;70.97;94436.94;5015815;28;20180;-89
2022/11/06 10:00:01;;;;;;;12.87;9.70;;;;;;;18.69;71.11;94450.56;5017146;28;20404;-91
2022/11/06 10:02:32;;;;;;;13.53;10.03;;;;;;;18.69;70.90;94447.13;5015968;28;20202;-88
2022/11/06 10:05:08;;;;;;;14.10;9.97;;;;;;;18.70;70.86;94443.59;5017967;28;20216;-88
2022/11/06 10:07:36;;;;;;;13.37;9.90;;;;;;;18.59;70.91;94431.97;5016515;28;20223;-88
2022/11/06 10:10:06;;;;;;;10.70;9.17;;;;;;;18.67;70.85;94436.97;5016942;28;20200;-88
2022/11/06 10:12:54;;;;;;;14.17;9.70;;;;;;;18.70;70.95;94446.19;5018049;28;20180;-91
2022/11/06 10:15:27;;;;;;;15.93;9.00;;;;;;;18.71;70.88;94434.84;5019133;28;20226;-86
2022/11/06 10:18:04;;;;;;;10.50;9.00;;;;;;;18.68;71.10;94435.19;5023614;28;20199;-89
2022/11/06 10:20:42;;;;;;;8.83;8.00;;;;;;;18.70;71.06;94441.03;5030445;28;20192;-89
2022/11/06 10:23:15;;;;;;;9.50;8.53;;;;;;;18.77;70.97;94447.00;5020294;28;20219;-88
2022/11/06 10:25:57;;;;;;;8.27;7.30;;;;;;;18.81;70.95;94448.22;5019682;28;20185;-90
2022/11/06 10:29:00;;;;;;;10.03;8.00;;;;;;;18.86;71.18;94447.63;5022107;28;20223;-84
2022/11/06 10:31:35;;;;;;;8.90;7.27;;;;;;;18.74;70.82;94427.47;5033026;28;20191;-85
2022/11/06 10:34:08;;;;;;;10.70;7.00;;;;;;;18.91;71.06;94446.06;5028513;28;20196;-87
2022/11/06 10:36:42;;;;;;;9.90;7.23;;;;;;;18.95;70.91;94444.66;5020458;28;20196;-86
2022/11/06 10:39:17;;;;;;;9.20;6.83;;;;;;;18.98;70.90;94443.50;5021657;28;20763;-85
2022/11/06 10:41:49;;;;;;;12.27;7.87;;;;;;;18.83;70.77;94419.53;5022166;28;20188;-85
2022/11/06 10:44:23;;;;;;;12.67;6.97;;;;;;;19.03;70.80;94441.09;5027015;28;20220;-84
2022/11/06 10:46:55;;;;;;;7.50;6.70;;;;;;;19.06;70.90;94448.50;5023155;28;20198;-86
2022/11/06 10:49:33;;;;;;;9.23;7.10;;;;;;;19.04;70.86;94438.34;5023390;28;20189;-84
2022/11/06 10:52:22;;;;;;;10.70;6.80;;;;;;;18.91;70.63;94408.97;5023538;28;20195;-90
2022/11/06 10:55:06;;;;;;;6.50;5.90;;;;;;;18.92;70.60;94418.38;5025240;28;20192;-84
2022/11/06 10:57:43;;;;;;;7.10;6.40;;;;;;;18.94;70.60;94418.97;5031602;28;20192;-83
2022/11/06 11:00:12;;;;;;;8.30;6.10;;;;;;;19.13;70.62;94446.72;5029010;28;20219;-82
2022/11/06 11:02:46;;;;;;;8.03;5.63;;;;;;;19.06;70.51;94440.72;5024663;28;20188;-87
2022/11/06 11:05:16;;;;;;;6.93;6.23;;;;;;;19.13;70.69;94443.31;5025192;28;20231;-84
2022/11/06 11:07:47;;;;;;;6.67;5.10;;;;;;;18.91;70.48;94421.94;5026263;28;20235;-84
2022/11/06 11:10:29;;;;;;;7.97;5.90;;;;;;;19.12;70.54;94457.28;5031996;28;20183;-86
2022/11/06 11:13:00;;;;;;;6.47;5.80;;;;;;;19.11;70.38;94458.28;5033646;28;20191;-83
2022/11/06 11:15:44;;;;;;;6.93;5.83;;;;;;;18.99;70.39;94437.31;5033174;28;20235;-84
2022/11/06 11:18:40;;;;;;;6.07;4.67;;;;;;;18.89;70.50;94418.75;5031519;28;20188;-85
2022/11/06 11:21:16;;;;;;;5.27;4.77;;;;;;;18.98;70.40;94443.50;4952102;29;20278;-86
2022/11/06 11:23:45;;;;;;;5.30;4.77;;;;;;;19.03;70.58;94449.69;4967735;29;20210;-83
2022/11/06 11:26:31;;;;;;;5.63;4.70;;;;;;;18.98;70.84;94439.09;4965430;29;20195;-85
2022/11/06 11:28:59;;;;;;;5.43;4.93;;;;;;;19.00;70.64;94444.91;4967255;29;20194;-82
2022/11/06 11:31:31;;;;;;;5.67;4.40;;;;;;;18.89;70.84;94423.94;4969439;29;20194;-84
2022/11/06 11:34:01;;;;;;;7.40;5.20;;;;;;;18.94;70.83;94432.72;4962152;29;20205;-85
2022/11/06 11:36:50;;;;;;;5.07;4.60;;;;;;;19.01;70.92;94443.09;4959237;29;20198;-85
2022/11/06 11:39:22;;;;;;;6.40;5.27;;;;;;;18.81;70.69;94406.75;4992760;28;20210;-86
2022/11/06 11:41:49;;;;;;;4.90;4.50;;;;;;;18.83;70.81;94407.38;5021207;28;20292;-88
2022/11/06 11:44:18;;;;;;;6.23;4.80;;;;;;;18.99;70.86;94427.72;5017539;28;20223;-84
2022/11/06 11:46:51;;;;;;;4.53;4.03;;;;;;;19.06;70.89;94435.53;5014797;28;20587;-85
2022/11/06 11:49:31;;;;;;;7.10;4.73;;;;;;;19.09;71.02;94439.53;5015152;28;20212;-86
2022/11/06 11:52:00;;;;;;;5.63;5.10;;;;;;;19.10;70.89;94436.75;5015688;28;20575;-85
2022/11/06 11:54:32;;;;;;;4.63;4.10;;;;;;;19.03;70.93;94423.75;5015132;28;20668;-86
2022/11/06 11:57:02;;;;;;;5.23;4.57;;;;;;;18.97;71.10;94409.00;5013796;28;20374;-89